sensor_id;sensor_type;location;lat;lon;timestamp;P1;durP1;ratioP1;P2;durP2;ratioP2
595;SDS011;19946;49.306;11.350;2023-04-24T00:01:11;0.90;;;0.90;;
595;SDS011;19946;49.306;11.350;2023-04-24T00:04:13;1.10;;;1.10;;
595;SDS011;19946;49.306;11.350;2023-04-24T00:07:16;1.20;;;1.20;;
595;SDS011;19946;49.306;11.350;2023-04-24T00:10:16;1.27;;;1.27;;
595;SDS011;19946;49.306;11.350;2023-04-24T00:13:17;0.90;;;0.90;;
595;SDS011;19946;49.306;11.350;2023-04-24T00:16:17;1.50;;;1.50;;
595;SDS011;19946;49.306;11.350;2023-04-24T00:19:17;1.40;;;1.40;;
595;SDS011;19946;49.306;11.350;2023-04-24T00:22:21;1.30;;;1.30;;
595;SDS011;19946;49.306;11.350;2023-04-24T00:25:22;1.67;;;1.67;;
595;SDS011;19946;49.306;11.350;2023-04-24T00:28:22;1.60;;;1.60;;
595;SDS011;19946;49.306;11.350;2023-04-24T00:31:22;1.80;;;1.80;;
595;SDS011;19946;49.306;11.350;2023-04-24T00:34:23;1.80;;;1.80;;
595;SDS011;19946;49.306;11.350;2023-04-24T00:37:23;1.50;;;1.50;;
595;SDS011;19946;49.306;11.350;2023-04-24T00:40:24;1.50;;;1.50;;
595;SDS011;19946;49.306;11.350;2023-04-24T00:43:24;1.30;;;1.30;;
595;SDS011;19946;49.306;11.350;2023-04-24T00:46:24;0.83;;;0.83;;
595;SDS011;19946;49.306;11.350;2023-04-24T00:49:25;1.00;;;1.00;;
595;SDS011;19946;49.306;11.350;2023-04-24T00:52:25;0.90;;;0.90;;
595;SDS011;19946;49.306;11.350;2023-04-24T00:55:26;1.50;;;1.50;;
595;SDS011;19946;49.306;11.350;2023-04-24T00:58:27;1.10;;;1.10;;
595;SDS011;19946;49.306;11.350;2023-04-24T01:01:27;1.30;;;1.30;;
595;SDS011;19946;49.306;11.350;2023-04-24T01:04:28;1.40;;;1.40;;
595;SDS011;19946;49.306;11.350;2023-04-24T01:07:28;2.10;;;2.10;;
595;SDS011;19946;49.306;11.350;2023-04-24T01:10:29;2.30;;;2.30;;
595;SDS011;19946;49.306;11.350;2023-04-24T01:13:33;2.70;;;2.70;;
595;SDS011;19946;49.306;11.350;2023-04-24T01:16:34;3.00;;;3.00;;
595;SDS011;19946;49.306;11.350;2023-04-24T01:19:34;3.20;;;3.20;;
595;SDS011;19946;49.306;11.350;2023-04-24T01:22:37;3.10;;;3.10;;
595;SDS011;19946;49.306;11.350;2023-04-24T01:25:38;3.00;;;3.00;;
595;SDS011;19946;49.306;11.350;2023-04-24T01:28:39;2.30;;;2.30;;
595;SDS011;19946;49.306;11.350;2023-04-24T01:31:39;2.10;;;2.10;;
595;SDS011;19946;49.306;11.350;2023-04-24T01:34:40;1.40;;;1.40;;
595;SDS011;19946;49.306;11.350;2023-04-24T01:37:40;0.90;;;0.90;;
595;SDS011;19946;49.306;11.350;2023-04-24T01:40:41;1.20;;;1.20;;
595;SDS011;19946;49.306;11.350;2023-04-24T01:43:41;1.80;;;1.80;;
595;SDS011;19946;49.306;11.350;2023-04-24T01:46:41;2.20;;;2.20;;
595;SDS011;19946;49.306;11.350;2023-04-24T01:49:42;2.40;;;2.40;;
595;SDS011;19946;49.306;11.350;2023-04-24T01:52:42;1.40;;;1.40;;
595;SDS011;19946;49.306;11.350;2023-04-24T01:55:43;1.50;;;1.50;;
595;SDS011;19946;49.306;11.350;2023-04-24T01:58:46;1.30;;;1.30;;
595;SDS011;19946;49.306;11.350;2023-04-24T02:01:47;1.77;;;1.77;;
595;SDS011;19946;49.306;11.350;2023-04-24T02:04:48;2.00;;;2.00;;
595;SDS011;19946;49.306;11.350;2023-04-24T02:07:48;1.93;;;1.93;;
595;SDS011;19946;49.306;11.350;2023-04-24T02:10:48;1.70;;;1.70;;
595;SDS011;19946;49.306;11.350;2023-04-24T02:13:49;1.80;;;1.80;;
595;SDS011;19946;49.306;11.350;2023-04-24T02:16:50;2.00;;;2.00;;
595;SDS011;19946;49.306;11.350;2023-04-24T02:19:50;1.80;;;1.80;;
595;SDS011;19946;49.306;11.350;2023-04-24T02:22:50;2.13;;;2.13;;
595;SDS011;19946;49.306;11.350;2023-04-24T02:25:52;3.00;;;3.00;;
595;SDS011;19946;49.306;11.350;2023-04-24T02:28:53;3.10;;;3.10;;
595;SDS011;19946;49.306;11.350;2023-04-24T02:31:54;4.70;;;4.70;;
595;SDS011;19946;49.306;11.350;2023-04-24T02:34:54;3.53;;;3.53;;
595;SDS011;19946;49.306;11.350;2023-04-24T02:37:55;4.60;;;4.60;;
595;SDS011;19946;49.306;11.350;2023-04-24T02:40:55;4.23;;;4.23;;
595;SDS011;19946;49.306;11.350;2023-04-24T02:43:55;3.20;;;3.20;;
595;SDS011;19946;49.306;11.350;2023-04-24T02:46:56;4.10;;;4.10;;
595;SDS011;19946;49.306;11.350;2023-04-24T02:49:56;4.30;;;4.30;;
595;SDS011;19946;49.306;11.350;2023-04-24T02:52:57;4.93;;;4.93;;
595;SDS011;19946;49.306;11.350;2023-04-24T02:55:57;4.10;;;4.10;;
595;SDS011;19946;49.306;11.350;2023-04-24T02:58:58;3.20;;;3.20;;
595;SDS011;19946;49.306;11.350;2023-04-24T03:01:58;2.80;;;2.80;;
595;SDS011;19946;49.306;11.350;2023-04-24T03:04:59;3.20;;;3.20;;
595;SDS011;19946;49.306;11.350;2023-04-24T03:07:59;2.33;;;2.33;;
595;SDS011;19946;49.306;11.350;2023-04-24T03:11:00;2.30;;;2.30;;
595;SDS011;19946;49.306;11.350;2023-04-24T03:14:00;2.70;;;2.70;;
595;SDS011;19946;49.306;11.350;2023-04-24T03:17:01;2.70;;;2.70;;
595;SDS011;19946;49.306;11.350;2023-04-24T03:20:01;3.50;;;3.50;;
595;SDS011;19946;49.306;11.350;2023-04-24T03:23:03;3.80;;;3.80;;
595;SDS011;19946;49.306;11.350;2023-04-24T03:26:04;3.10;;;3.10;;
595;SDS011;19946;49.306;11.350;2023-04-24T03:29:05;3.60;;;3.60;;
595;SDS011;19946;49.306;11.350;2023-04-24T03:32:05;4.70;;;4.70;;
595;SDS011;19946;49.306;11.350;2023-04-24T03:35:06;4.20;;;4.20;;
595;SDS011;19946;49.306;11.350;2023-04-24T03:38:08;2.70;;;2.70;;
595;SDS011;19946;49.306;11.350;2023-04-24T03:41:11;2.30;;;2.30;;
595;SDS011;19946;49.306;11.350;2023-04-24T03:44:20;3.23;;;3.23;;
595;SDS011;19946;49.306;11.350;2023-04-24T03:47:20;3.00;;;3.00;;
595;SDS011;19946;49.306;11.350;2023-04-24T03:50:22;3.80;;;3.80;;
595;SDS011;19946;49.306;11.350;2023-04-24T03:53:23;3.70;;;3.70;;
595;SDS011;19946;49.306;11.350;2023-04-24T03:56:24;4.20;;;4.20;;
595;SDS011;19946;49.306;11.350;2023-04-24T03:59:24;4.60;;;4.60;;
595;SDS011;19946;49.306;11.350;2023-04-24T04:02:38;4.97;;;4.97;;
595;SDS011;19946;49.306;11.350;2023-04-24T04:05:39;5.00;;;5.00;;
595;SDS011;19946;49.306;11.350;2023-04-24T04:08:39;4.70;;;4.70;;
595;SDS011;19946;49.306;11.350;2023-04-24T04:11:40;3.80;;;3.80;;
595;SDS011;19946;49.306;11.350;2023-04-24T04:14:40;2.60;;;2.60;;
595;SDS011;19946;49.306;11.350;2023-04-24T04:17:40;1.80;;;1.80;;
595;SDS011;19946;49.306;11.350;2023-04-24T04:20:41;2.33;;;2.33;;
595;SDS011;19946;49.306;11.350;2023-04-24T04:23:43;2.90;;;2.90;;
595;SDS011;19946;49.306;11.350;2023-04-24T04:26:51;2.27;;;2.27;;
595;SDS011;19946;49.306;11.350;2023-04-24T04:30:02;3.80;;;3.80;;
595;SDS011;19946;49.306;11.350;2023-04-24T04:33:07;3.60;;;3.60;;
595;SDS011;19946;49.306;11.350;2023-04-24T04:36:08;2.40;;;2.40;;
595;SDS011;19946;49.306;11.350;2023-04-24T04:39:12;2.63;;;2.63;;
595;SDS011;19946;49.306;11.350;2023-04-24T04:42:30;1.60;;;1.60;;
595;SDS011;19946;49.306;11.350;2023-04-24T04:45:30;1.60;;;1.60;;
595;SDS011;19946;49.306;11.350;2023-04-24T04:48:53;2.10;;;2.10;;
595;SDS011;19946;49.306;11.350;2023-04-24T04:51:54;2.23;;;2.23;;
595;SDS011;19946;49.306;11.350;2023-04-24T04:54:56;1.90;;;1.90;;
595;SDS011;19946;49.306;11.350;2023-04-24T04:58:03;1.47;;;1.47;;
595;SDS011;19946;49.306;11.350;2023-04-24T05:01:04;2.03;;;2.03;;
595;SDS011;19946;49.306;11.350;2023-04-24T05:04:10;2.40;;;2.40;;
595;SDS011;19946;49.306;11.350;2023-04-24T05:07:13;2.80;;;2.80;;
595;SDS011;19946;49.306;11.350;2023-04-24T05:10:19;2.13;;;2.13;;
595;SDS011;19946;49.306;11.350;2023-04-24T05:13:20;1.10;;;1.10;;
595;SDS011;19946;49.306;11.350;2023-04-24T05:16:21;0.90;;;0.90;;
595;SDS011;19946;49.306;11.350;2023-04-24T05:19:23;1.00;;;1.00;;
595;SDS011;19946;49.306;11.350;2023-04-24T05:22:24;1.60;;;1.60;;
595;SDS011;19946;49.306;11.350;2023-04-24T05:25:26;1.63;;;1.63;;
595;SDS011;19946;49.306;11.350;2023-04-24T05:28:40;1.73;;;1.73;;
595;SDS011;19946;49.306;11.350;2023-04-24T05:31:44;1.37;;;1.37;;
595;SDS011;19946;49.306;11.350;2023-04-24T05:34:45;0.90;;;0.90;;
595;SDS011;19946;49.306;11.350;2023-04-24T05:37:46;1.00;;;1.00;;
595;SDS011;19946;49.306;11.350;2023-04-24T05:40:47;0.90;;;0.90;;
595;SDS011;19946;49.306;11.350;2023-04-24T05:43:48;0.70;;;0.70;;
595;SDS011;19946;49.306;11.350;2023-04-24T05:46:49;1.20;;;1.20;;
595;SDS011;19946;49.306;11.350;2023-04-24T05:49:50;1.03;;;1.03;;
595;SDS011;19946;49.306;11.350;2023-04-24T05:52:51;1.30;;;1.30;;
595;SDS011;19946;49.306;11.350;2023-04-24T05:55:58;1.00;;;1.00;;
595;SDS011;19946;49.306;11.350;2023-04-24T05:58:58;0.90;;;0.90;;
595;SDS011;19946;49.306;11.350;2023-04-24T06:01:59;0.80;;;0.80;;
595;SDS011;19946;49.306;11.350;2023-04-24T06:04:59;1.17;;;1.17;;
595;SDS011;19946;49.306;11.350;2023-04-24T06:08:00;0.97;;;0.97;;
595;SDS011;19946;49.306;11.350;2023-04-24T06:11:05;1.00;;;1.00;;
595;SDS011;19946;49.306;11.350;2023-04-24T06:14:06;1.43;;;1.43;;
595;SDS011;19946;49.306;11.350;2023-04-24T06:17:12;1.20;;;1.20;;
595;SDS011;19946;49.306;11.350;2023-04-24T06:20:14;1.20;;;1.20;;
595;SDS011;19946;49.306;11.350;2023-04-24T06:23:14;1.57;;;1.57;;
595;SDS011;19946;49.306;11.350;2023-04-24T06:26:15;1.50;;;1.50;;
595;SDS011;19946;49.306;11.350;2023-04-24T06:29:16;1.30;;;1.30;;
595;SDS011;19946;49.306;11.350;2023-04-24T06:32:16;1.80;;;1.80;;
595;SDS011;19946;49.306;11.350;2023-04-24T06:35:16;1.20;;;1.20;;
595;SDS011;19946;49.306;11.350;2023-04-24T06:38:16;1.13;;;1.13;;
595;SDS011;19946;49.306;11.350;2023-04-24T06:41:17;0.90;;;0.90;;
595;SDS011;19946;49.306;11.350;2023-04-24T06:44:17;1.03;;;1.03;;
595;SDS011;19946;49.306;11.350;2023-04-24T06:47:17;0.90;;;0.90;;
595;SDS011;19946;49.306;11.350;2023-04-24T06:50:18;0.90;;;0.90;;
595;SDS011;19946;49.306;11.350;2023-04-24T06:53:18;0.80;;;0.80;;
595;SDS011;19946;49.306;11.350;2023-04-24T06:56:19;0.70;;;0.70;;
595;SDS011;19946;49.306;11.350;2023-04-24T06:59:20;1.20;;;1.20;;
595;SDS011;19946;49.306;11.350;2023-04-24T07:02:20;1.93;;;1.93;;
595;SDS011;19946;49.306;11.350;2023-04-24T07:05:21;2.40;;;2.40;;
595;SDS011;19946;49.306;11.350;2023-04-24T07:08:21;1.00;;;1.00;;
595;SDS011;19946;49.306;11.350;2023-04-24T07:11:22;2.27;;;2.27;;
595;SDS011;19946;49.306;11.350;2023-04-24T07:14:23;2.20;;;2.20;;
595;SDS011;19946;49.306;11.350;2023-04-24T07:17:24;1.90;;;1.90;;
595;SDS011;19946;49.306;11.350;2023-04-24T07:20:24;2.20;;;2.20;;
595;SDS011;19946;49.306;11.350;2023-04-24T07:23:24;1.97;;;1.97;;
595;SDS011;19946;49.306;11.350;2023-04-24T07:26:25;2.60;;;2.60;;
595;SDS011;19946;49.306;11.350;2023-04-24T07:29:26;1.00;;;1.00;;
595;SDS011;19946;49.306;11.350;2023-04-24T07:32:27;1.63;;;1.63;;
595;SDS011;19946;49.306;11.350;2023-04-24T07:35:27;2.13;;;2.13;;
595;SDS011;19946;49.306;11.350;2023-04-24T07:38:29;1.20;;;1.20;;
595;SDS011;19946;49.306;11.350;2023-04-24T07:41:29;2.50;;;2.50;;
595;SDS011;19946;49.306;11.350;2023-04-24T07:44:30;3.20;;;3.20;;
595;SDS011;19946;49.306;11.350;2023-04-24T07:47:30;0.97;;;0.97;;
595;SDS011;19946;49.306;11.350;2023-04-24T07:50:31;1.50;;;1.50;;
595;SDS011;19946;49.306;11.350;2023-04-24T07:53:31;2.13;;;2.13;;
595;SDS011;19946;49.306;11.350;2023-04-24T07:56:32;1.60;;;1.60;;
595;SDS011;19946;49.306;11.350;2023-04-24T07:59:33;1.43;;;1.43;;
595;SDS011;19946;49.306;11.350;2023-04-24T08:02:33;1.20;;;1.20;;
595;SDS011;19946;49.306;11.350;2023-04-24T08:05:33;1.10;;;1.10;;
595;SDS011;19946;49.306;11.350;2023-04-24T08:08:34;1.20;;;1.20;;
595;SDS011;19946;49.306;11.350;2023-04-24T08:11:34;1.20;;;1.20;;
595;SDS011;19946;49.306;11.350;2023-04-24T08:14:34;1.53;;;1.53;;
595;SDS011;19946;49.306;11.350;2023-04-24T08:17:35;0.80;;;0.80;;
595;SDS011;19946;49.306;11.350;2023-04-24T08:20:35;1.10;;;1.10;;
595;SDS011;19946;49.306;11.350;2023-04-24T08:23:36;1.20;;;1.20;;
595;SDS011;19946;49.306;11.350;2023-04-24T08:26:36;1.20;;;1.20;;
595;SDS011;19946;49.306;11.350;2023-04-24T08:29:37;1.03;;;1.03;;
595;SDS011;19946;49.306;11.350;2023-04-24T08:32:37;0.90;;;0.90;;
595;SDS011;19946;49.306;11.350;2023-04-24T08:35:37;1.60;;;1.60;;
595;SDS011;19946;49.306;11.350;2023-04-24T08:38:38;1.83;;;1.83;;
595;SDS011;19946;49.306;11.350;2023-04-24T08:41:39;1.83;;;1.83;;
595;SDS011;19946;49.306;11.350;2023-04-24T08:44:42;1.47;;;1.47;;
595;SDS011;19946;49.306;11.350;2023-04-24T08:47:44;1.97;;;1.97;;
595;SDS011;19946;49.306;11.350;2023-04-24T08:50:45;1.67;;;1.67;;
595;SDS011;19946;49.306;11.350;2023-04-24T08:53:46;1.70;;;1.70;;
595;SDS011;19946;49.306;11.350;2023-04-24T08:56:48;1.30;;;1.30;;
595;SDS011;19946;49.306;11.350;2023-04-24T08:59:49;1.60;;;1.60;;
595;SDS011;19946;49.306;11.350;2023-04-24T09:02:49;2.10;;;2.10;;
595;SDS011;19946;49.306;11.350;2023-04-24T09:05:50;2.20;;;2.20;;
595;SDS011;19946;49.306;11.350;2023-04-24T09:08:52;2.60;;;2.60;;
595;SDS011;19946;49.306;11.350;2023-04-24T09:11:54;2.20;;;2.20;;
595;SDS011;19946;49.306;11.350;2023-04-24T09:14:56;2.30;;;2.30;;
595;SDS011;19946;49.306;11.350;2023-04-24T09:17:56;3.10;;;3.10;;
595;SDS011;19946;49.306;11.350;2023-04-24T09:20:58;2.50;;;2.50;;
595;SDS011;19946;49.306;11.350;2023-04-24T09:24:01;2.60;;;2.60;;
595;SDS011;19946;49.306;11.350;2023-04-24T09:27:03;2.20;;;2.20;;
595;SDS011;19946;49.306;11.350;2023-04-24T09:30:04;2.53;;;2.53;;
595;SDS011;19946;49.306;11.350;2023-04-24T09:33:14;2.30;;;2.30;;
595;SDS011;19946;49.306;11.350;2023-04-24T09:36:16;2.40;;;2.40;;
595;SDS011;19946;49.306;11.350;2023-04-24T09:39:18;2.27;;;2.27;;
595;SDS011;19946;49.306;11.350;2023-04-24T09:42:21;1.83;;;1.83;;
595;SDS011;19946;49.306;11.350;2023-04-24T09:45:31;1.30;;;1.30;;
595;SDS011;19946;49.306;11.350;2023-04-24T09:48:36;1.50;;;1.50;;
595;SDS011;19946;49.306;11.350;2023-04-24T09:51:37;1.70;;;1.70;;
595;SDS011;19946;49.306;11.350;2023-04-24T09:54:39;1.60;;;1.60;;
595;SDS011;19946;49.306;11.350;2023-04-24T09:57:47;1.70;;;1.70;;
595;SDS011;19946;49.306;11.350;2023-04-24T10:00:48;1.50;;;1.50;;
595;SDS011;19946;49.306;11.350;2023-04-24T10:03:48;1.50;;;1.50;;
595;SDS011;19946;49.306;11.350;2023-04-24T10:06:49;1.80;;;1.80;;
595;SDS011;19946;49.306;11.350;2023-04-24T10:09:50;1.60;;;1.60;;
595;SDS011;19946;49.306;11.350;2023-04-24T10:12:51;1.50;;;1.50;;
595;SDS011;19946;49.306;11.350;2023-04-24T10:15:52;1.40;;;1.40;;
595;SDS011;19946;49.306;11.350;2023-04-24T10:18:53;1.30;;;1.30;;
595;SDS011;19946;49.306;11.350;2023-04-24T10:21:54;1.30;;;1.30;;
595;SDS011;19946;49.306;11.350;2023-04-24T10:24:56;1.50;;;1.50;;
595;SDS011;19946;49.306;11.350;2023-04-24T10:27:57;1.40;;;1.40;;
595;SDS011;19946;49.306;11.350;2023-04-24T10:30:59;1.50;;;1.50;;
595;SDS011;19946;49.306;11.350;2023-04-24T10:34:00;1.50;;;1.50;;
595;SDS011;19946;49.306;11.350;2023-04-24T10:37:01;1.90;;;1.90;;
595;SDS011;19946;49.306;11.350;2023-04-24T10:40:02;1.90;;;1.90;;
595;SDS011;19946;49.306;11.350;2023-04-24T10:43:03;1.90;;;1.90;;
595;SDS011;19946;49.306;11.350;2023-04-24T10:46:09;2.10;;;2.10;;
595;SDS011;19946;49.306;11.350;2023-04-24T10:49:12;2.23;;;2.23;;
595;SDS011;19946;49.306;11.350;2023-04-24T10:52:13;2.10;;;2.10;;
595;SDS011;19946;49.306;11.350;2023-04-24T10:55:14;2.00;;;2.00;;
595;SDS011;19946;49.306;11.350;2023-04-24T10:58:15;1.80;;;1.80;;
595;SDS011;19946;49.306;11.350;2023-04-24T11:01:30;2.30;;;2.30;;
595;SDS011;19946;49.306;11.350;2023-04-24T11:04:32;2.00;;;2.00;;
595;SDS011;19946;49.306;11.350;2023-04-24T11:08:09;2.10;;;2.10;;
595;SDS011;19946;49.306;11.350;2023-04-24T11:11:14;1.93;;;1.93;;
595;SDS011;19946;49.306;11.350;2023-04-24T11:14:16;2.47;;;2.47;;
595;SDS011;19946;49.306;11.350;2023-04-24T11:17:33;2.93;;;2.90;;
595;SDS011;19946;49.306;11.350;2023-04-24T11:20:38;2.97;;;2.93;;
595;SDS011;19946;49.306;11.350;2023-04-24T11:23:42;2.40;;;2.40;;
595;SDS011;19946;49.306;11.350;2023-04-24T11:26:42;2.60;;;2.60;;
595;SDS011;19946;49.306;11.350;2023-04-24T11:29:46;2.30;;;2.30;;
595;SDS011;19946;49.306;11.350;2023-04-24T11:32:48;1.80;;;1.80;;
595;SDS011;19946;49.306;11.350;2023-04-24T11:35:51;1.80;;;1.80;;
595;SDS011;19946;49.306;11.350;2023-04-24T11:38:51;1.53;;;1.53;;
595;SDS011;19946;49.306;11.350;2023-04-24T11:41:51;1.40;;;1.40;;
595;SDS011;19946;49.306;11.350;2023-04-24T11:44:52;1.50;;;1.50;;
595;SDS011;19946;49.306;11.350;2023-04-24T11:47:56;1.60;;;1.60;;
595;SDS011;19946;49.306;11.350;2023-04-24T11:50:57;2.07;;;2.07;;
595;SDS011;19946;49.306;11.350;2023-04-24T11:53:58;2.00;;;2.00;;
595;SDS011;19946;49.306;11.350;2023-04-24T11:56:58;2.10;;;2.10;;
595;SDS011;19946;49.306;11.350;2023-04-24T11:59:59;2.10;;;2.10;;
595;SDS011;19946;49.306;11.350;2023-04-24T12:03:04;2.40;;;2.40;;
595;SDS011;19946;49.306;11.350;2023-04-24T12:06:09;1.80;;;1.80;;
595;SDS011;19946;49.306;11.350;2023-04-24T12:09:10;1.80;;;1.80;;
595;SDS011;19946;49.306;11.350;2023-04-24T12:12:12;1.60;;;1.60;;
595;SDS011;19946;49.306;11.350;2023-04-24T12:15:13;1.70;;;1.70;;
595;SDS011;19946;49.306;11.350;2023-04-24T12:18:16;1.90;;;1.90;;
595;SDS011;19946;49.306;11.350;2023-04-24T12:21:19;1.60;;;1.60;;
595;SDS011;19946;49.306;11.350;2023-04-24T12:24:21;1.60;;;1.60;;
595;SDS011;19946;49.306;11.350;2023-04-24T12:27:21;1.60;;;1.60;;
595;SDS011;19946;49.306;11.350;2023-04-24T12:30:26;1.60;;;1.60;;
595;SDS011;19946;49.306;11.350;2023-04-24T12:33:34;1.50;;;1.50;;
595;SDS011;19946;49.306;11.350;2023-04-24T12:36:35;1.50;;;1.50;;
595;SDS011;19946;49.306;11.350;2023-04-24T12:39:35;1.60;;;1.60;;
595;SDS011;19946;49.306;11.350;2023-04-24T12:42:36;1.50;;;1.50;;
595;SDS011;19946;49.306;11.350;2023-04-24T12:45:42;1.47;;;1.47;;
595;SDS011;19946;49.306;11.350;2023-04-24T12:48:43;1.40;;;1.40;;
595;SDS011;19946;49.306;11.350;2023-04-24T12:51:43;1.50;;;1.50;;
595;SDS011;19946;49.306;11.350;2023-04-24T12:54:43;1.53;;;1.53;;
595;SDS011;19946;49.306;11.350;2023-04-24T12:57:44;1.40;;;1.40;;
595;SDS011;19946;49.306;11.350;2023-04-24T13:00:44;1.30;;;1.30;;
595;SDS011;19946;49.306;11.350;2023-04-24T13:03:45;1.10;;;1.10;;
595;SDS011;19946;49.306;11.350;2023-04-24T13:06:45;1.50;;;1.50;;
595;SDS011;19946;49.306;11.350;2023-04-24T13:09:47;1.20;;;1.20;;
595;SDS011;19946;49.306;11.350;2023-04-24T13:12:48;1.30;;;1.30;;
595;SDS011;19946;49.306;11.350;2023-04-24T13:15:48;1.20;;;1.20;;
595;SDS011;19946;49.306;11.350;2023-04-24T13:18:49;1.30;;;1.30;;
595;SDS011;19946;49.306;11.350;2023-04-24T13:21:49;1.30;;;1.30;;
595;SDS011;19946;49.306;11.350;2023-04-24T13:24:51;1.30;;;1.30;;
595;SDS011;19946;49.306;11.350;2023-04-24T13:27:51;1.30;;;1.30;;
595;SDS011;19946;49.306;11.350;2023-04-24T13:30:54;1.37;;;1.37;;
595;SDS011;19946;49.306;11.350;2023-04-24T13:33:55;1.20;;;1.20;;
595;SDS011;19946;49.306;11.350;2023-04-24T13:36:56;1.10;;;1.10;;
595;SDS011;19946;49.306;11.350;2023-04-24T13:39:57;1.10;;;1.10;;
595;SDS011;19946;49.306;11.350;2023-04-24T13:42:57;1.10;;;1.10;;
595;SDS011;19946;49.306;11.350;2023-04-24T13:45:57;1.20;;;1.20;;
595;SDS011;19946;49.306;11.350;2023-04-24T13:48:59;1.20;;;1.20;;
595;SDS011;19946;49.306;11.350;2023-04-24T13:51:59;1.07;;;1.07;;
595;SDS011;19946;49.306;11.350;2023-04-24T13:54:59;1.20;;;1.20;;
595;SDS011;19946;49.306;11.350;2023-04-24T13:58:00;1.00;;;1.00;;
595;SDS011;19946;49.306;11.350;2023-04-24T14:01:01;0.90;;;0.90;;
595;SDS011;19946;49.306;11.350;2023-04-24T14:04:01;1.00;;;1.00;;
595;SDS011;19946;49.306;11.350;2023-04-24T14:07:02;1.07;;;1.07;;
595;SDS011;19946;49.306;11.350;2023-04-24T14:10:02;1.00;;;1.00;;
595;SDS011;19946;49.306;11.350;2023-04-24T14:13:02;0.80;;;0.80;;
595;SDS011;19946;49.306;11.350;2023-04-24T14:16:03;0.93;;;0.93;;
595;SDS011;19946;49.306;11.350;2023-04-24T14:19:04;0.90;;;0.90;;
595;SDS011;19946;49.306;11.350;2023-04-24T14:22:06;0.70;;;0.70;;
595;SDS011;19946;49.306;11.350;2023-04-24T14:25:06;0.80;;;0.80;;
595;SDS011;19946;49.306;11.350;2023-04-24T14:28:07;0.70;;;0.70;;
595;SDS011;19946;49.306;11.350;2023-04-24T14:31:07;0.70;;;0.70;;
595;SDS011;19946;49.306;11.350;2023-04-24T14:34:08;0.90;;;0.90;;
595;SDS011;19946;49.306;11.350;2023-04-24T14:37:09;0.90;;;0.90;;
595;SDS011;19946;49.306;11.350;2023-04-24T14:40:09;1.10;;;1.10;;
595;SDS011;19946;49.306;11.350;2023-04-24T14:43:10;0.93;;;0.93;;
595;SDS011;19946;49.306;11.350;2023-04-24T14:46:10;1.00;;;1.00;;
595;SDS011;19946;49.306;11.350;2023-04-24T14:49:11;1.00;;;1.00;;
595;SDS011;19946;49.306;11.350;2023-04-24T14:52:12;1.20;;;1.20;;
595;SDS011;19946;49.306;11.350;2023-04-24T14:55:12;0.97;;;0.97;;
595;SDS011;19946;49.306;11.350;2023-04-24T14:58:13;0.80;;;0.80;;
595;SDS011;19946;49.306;11.350;2023-04-24T15:01:13;0.80;;;0.80;;
595;SDS011;19946;49.306;11.350;2023-04-24T15:04:14;0.70;;;0.70;;
595;SDS011;19946;49.306;11.350;2023-04-24T15:07:14;0.70;;;0.70;;
595;SDS011;19946;49.306;11.350;2023-04-24T15:10:14;0.50;;;0.50;;
595;SDS011;19946;49.306;11.350;2023-04-24T15:13:15;0.40;;;0.40;;
595;SDS011;19946;49.306;11.350;2023-04-24T15:16:15;0.50;;;0.50;;
595;SDS011;19946;49.306;11.350;2023-04-24T15:19:15;1.70;;;1.70;;
595;SDS011;19946;49.306;11.350;2023-04-24T15:22:16;0.60;;;0.60;;
595;SDS011;19946;49.306;11.350;2023-04-24T15:25:16;0.90;;;0.90;;
595;SDS011;19946;49.306;11.350;2023-04-24T15:28:16;1.53;;;1.53;;
595;SDS011;19946;49.306;11.350;2023-04-24T15:31:18;1.20;;;1.20;;
595;SDS011;19946;49.306;11.350;2023-04-24T15:34:18;1.07;;;1.07;;
595;SDS011;19946;49.306;11.350;2023-04-24T15:37:19;0.80;;;0.80;;
595;SDS011;19946;49.306;11.350;2023-04-24T15:40:19;1.57;;;1.57;;
595;SDS011;19946;49.306;11.350;2023-04-24T15:43:20;0.80;;;0.80;;
595;SDS011;19946;49.306;11.350;2023-04-24T15:46:20;0.90;;;0.90;;
595;SDS011;19946;49.306;11.350;2023-04-24T15:49:20;0.90;;;0.90;;
595;SDS011;19946;49.306;11.350;2023-04-24T15:52:21;0.60;;;0.60;;
595;SDS011;19946;49.306;11.350;2023-04-24T15:55:21;0.50;;;0.50;;
595;SDS011;19946;49.306;11.350;2023-04-24T15:58:21;0.60;;;0.60;;
595;SDS011;19946;49.306;11.350;2023-04-24T16:01:22;0.80;;;0.80;;
595;SDS011;19946;49.306;11.350;2023-04-24T16:04:22;0.50;;;0.50;;
595;SDS011;19946;49.306;11.350;2023-04-24T16:07:23;0.50;;;0.50;;
595;SDS011;19946;49.306;11.350;2023-04-24T16:10:23;0.70;;;0.70;;
595;SDS011;19946;49.306;11.350;2023-04-24T16:13:24;0.60;;;0.60;;
595;SDS011;19946;49.306;11.350;2023-04-24T16:16:24;0.70;;;0.70;;
595;SDS011;19946;49.306;11.350;2023-04-24T16:19:24;0.63;;;0.63;;
595;SDS011;19946;49.306;11.350;2023-04-24T16:22:25;0.50;;;0.50;;
595;SDS011;19946;49.306;11.350;2023-04-24T16:25:25;0.60;;;0.60;;
595;SDS011;19946;49.306;11.350;2023-04-24T16:28:25;0.50;;;0.50;;
595;SDS011;19946;49.306;11.350;2023-04-24T16:31:26;0.60;;;0.60;;
595;SDS011;19946;49.306;11.350;2023-04-24T16:34:27;0.63;;;0.63;;
595;SDS011;19946;49.306;11.350;2023-04-24T16:37:27;0.70;;;0.70;;
595;SDS011;19946;49.306;11.350;2023-04-24T16:40:28;0.67;;;0.67;;
595;SDS011;19946;49.306;11.350;2023-04-24T16:43:29;0.63;;;0.63;;
595;SDS011;19946;49.306;11.350;2023-04-24T16:46:33;0.60;;;0.60;;
595;SDS011;19946;49.306;11.350;2023-04-24T16:49:34;0.50;;;0.50;;
595;SDS011;19946;49.306;11.350;2023-04-24T16:52:35;0.60;;;0.60;;
595;SDS011;19946;49.306;11.350;2023-04-24T16:55:35;0.60;;;0.60;;
595;SDS011;19946;49.306;11.350;2023-04-24T16:58:35;0.60;;;0.60;;
595;SDS011;19946;49.306;11.350;2023-04-24T17:01:36;0.70;;;0.70;;
595;SDS011;19946;49.306;11.350;2023-04-24T17:04:36;0.60;;;0.60;;
595;SDS011;19946;49.306;11.350;2023-04-24T17:07:36;0.60;;;0.60;;
595;SDS011;19946;49.306;11.350;2023-04-24T17:10:36;0.60;;;0.60;;
595;SDS011;19946;49.306;11.350;2023-04-24T17:13:37;1.00;;;1.00;;
595;SDS011;19946;49.306;11.350;2023-04-24T17:16:37;0.70;;;0.70;;
595;SDS011;19946;49.306;11.350;2023-04-24T17:19:39;0.70;;;0.70;;
595;SDS011;19946;49.306;11.350;2023-04-24T17:22:40;1.10;;;1.10;;
595;SDS011;19946;49.306;11.350;2023-04-24T17:25:40;0.70;;;0.70;;
595;SDS011;19946;49.306;11.350;2023-04-24T17:28:41;0.70;;;0.70;;
595;SDS011;19946;49.306;11.350;2023-04-24T17:31:41;0.60;;;0.60;;
595;SDS011;19946;49.306;11.350;2023-04-24T17:34:41;0.50;;;0.50;;
595;SDS011;19946;49.306;11.350;2023-04-24T17:37:42;0.70;;;0.70;;
595;SDS011;19946;49.306;11.350;2023-04-24T17:40:42;0.50;;;0.50;;
595;SDS011;19946;49.306;11.350;2023-04-24T17:43:43;0.50;;;0.50;;
595;SDS011;19946;49.306;11.350;2023-04-24T17:46:44;0.60;;;0.60;;
595;SDS011;19946;49.306;11.350;2023-04-24T17:49:44;0.63;;;0.63;;
595;SDS011;19946;49.306;11.350;2023-04-24T17:52:45;0.60;;;0.60;;
595;SDS011;19946;49.306;11.350;2023-04-24T17:55:45;0.50;;;0.50;;
595;SDS011;19946;49.306;11.350;2023-04-24T17:58:46;0.40;;;0.40;;
595;SDS011;19946;49.306;11.350;2023-04-24T18:01:46;0.70;;;0.70;;
595;SDS011;19946;49.306;11.350;2023-04-24T18:04:46;0.60;;;0.60;;
595;SDS011;19946;49.306;11.350;2023-04-24T18:07:46;0.70;;;0.70;;
595;SDS011;19946;49.306;11.350;2023-04-24T18:10:47;0.70;;;0.70;;
595;SDS011;19946;49.306;11.350;2023-04-24T18:13:47;0.70;;;0.70;;
595;SDS011;19946;49.306;11.350;2023-04-24T18:16:48;0.87;;;0.87;;
595;SDS011;19946;49.306;11.350;2023-04-24T18:19:48;0.80;;;0.80;;
595;SDS011;19946;49.306;11.350;2023-04-24T18:22:49;0.70;;;0.70;;
595;SDS011;19946;49.306;11.350;2023-04-24T18:25:49;0.73;;;0.73;;
595;SDS011;19946;49.306;11.350;2023-04-24T18:28:50;0.67;;;0.67;;